Fallon, NV

4:36 PM PST on December 20, 2014 (GMT -0800)
K7ET, Bench Rd. | Change Station
CLOSE
Current Station
Personal Weather Station
Location: Fallon, NV
Elevation: 4100 ft
Nearby Weather Stations

Elev 4100 ft 39.51 °N, 118.99 °W | Updated 32 seconds ago

Overcast
Overcast
43.7 °F
Feels Like 44 °F
N
0.0
Wind Variable Wind from SE
Gusts 0.0 mph

Today
High -- | Low -- °F
--% Chance of Precip.
Yesterday
High -- | Low -- °F
Precip. -- in
7:12 AM 4:35 PM
Waning Crescent, 1% visible
Pressure 30.00 in
Visibility 10.0 miles
Clouds Scattered Clouds 7000 ft
Mostly Cloudy 9000 ft
Mostly Cloudy 15000 ft
Overcast 20000 ft
Windchill 44 °F
Dew Point 40 °F
Humidity 86%
Rainfall 0.00 in
Snow Depth Not available.
UV 0 out of 12
Pollen 1.70 out of 12
Air Quality Not available.
Flu Activity Not available.
METAR KNFL 202356Z 17004KT 10SM SCT070 BKN090 BKN150 OVC200 07/05 A3009 RMK AO2 RAE09 SLP158 P0000 60002 T00720050 10083 20061 53008

More Conditions Fewer Conditions

Pressure 30.00 in
Visibility 10.0 miles
Clouds Scattered Clouds 7000 ft
Mostly Cloudy 9000 ft
Mostly Cloudy 15000 ft
Overcast 20000 ft
Windchill 44 °F
Dew Point 40 °F
Humidity 86%
Rainfall 0.00 in
Snow Depth Not available.
UV 0 out of 12
Pollen 1.70 out of 12
Air Quality Not available.
Flu Activity Not available.
METAR KNFL 202356Z 17004KT 10SM SCT070 BKN090 BKN150 OVC200 07/05 A3009 RMK AO2 RAE09 SLP158 P0000 60002 T00720050 10083 20061 53008

More Conditions Fewer Conditions

10-Day Weather Forecast

Almanac

Astronomy

Dec. 20, 2014 Rise Set
Actual Time
Civil Twilight
Nautical Twilight
Astronomical Twilight
Moon
Length of Visible Light
Length of Day
Tomorrow will be .
, % of the Moon is Illuminated

Today's Extremes

State Highs State Lows

Community

WunderPhotos

Upload Photos

1,779,326 photos uploaded!

WunderBlogs® & News

Nearby

Air Quality

  Air Quality AQ Index Pollutant
Not available.

Snow Depth

Station Depth Elevation

Earthquake Activity

City Distance Mag. Time & Date
Minimum magnitude displayed is 2.5.

Coastal Water Temperatures

Place Temperature

Nearby Weather Stations